createdAt,value
2023-02-19T00:01:45.694Z,6.47
2023-02-19T00:04:15.043Z,5.53
2023-02-19T00:06:43.190Z,6.38
2023-02-19T00:09:12.390Z,5.68
2023-02-19T00:11:40.060Z,5.67
2023-02-19T00:14:07.183Z,4.65
2023-02-19T00:16:36.374Z,5.30
2023-02-19T00:19:05.237Z,4.70
2023-02-19T00:21:32.075Z,4.80
2023-02-19T00:24:01.471Z,3.90
2023-02-19T00:26:28.903Z,3.42
2023-02-19T00:28:57.150Z,3.75
2023-02-19T00:31:31.477Z,3.30
2023-02-19T00:34:01.312Z,3.78
2023-02-19T00:36:28.887Z,2.90
2023-02-19T00:38:55.370Z,4.45
2023-02-19T00:41:24.181Z,3.95
2023-02-19T00:43:57.885Z,3.28
2023-02-19T00:46:29.980Z,3.58
2023-02-19T00:48:57.620Z,3.50
2023-02-19T00:51:28.524Z,4.03
2023-02-19T00:53:55.065Z,3.83
2023-02-19T00:56:21.712Z,4.60
2023-02-19T00:58:48.922Z,3.92
2023-02-19T01:01:15.916Z,5.20
2023-02-19T01:03:42.832Z,5.45
2023-02-19T01:06:10.930Z,4.65
2023-02-19T01:08:38.013Z,4.90
2023-02-19T01:11:05.745Z,4.35
2023-02-19T01:13:32.517Z,5.07
2023-02-19T01:16:08.417Z,5.85
2023-02-19T01:18:35.383Z,5.15
2023-02-19T01:21:07.278Z,5.45
2023-02-19T01:23:34.159Z,5.20
2023-02-19T01:26:00.624Z,5.30
2023-02-19T01:28:27.084Z,6.05
2023-02-19T01:30:53.575Z,4.70
2023-02-19T01:33:20.062Z,5.78
2023-02-19T01:35:46.506Z,5.35
2023-02-19T01:38:12.932Z,6.87
2023-02-19T01:40:39.379Z,5.47
2023-02-19T01:43:15.079Z,5.32
2023-02-19T01:45:44.237Z,4.40
2023-02-19T01:48:22.860Z,5.80
2023-02-19T01:51:11.427Z,5.03
2023-02-19T01:53:41.857Z,4.78
2023-02-19T01:56:09.478Z,4.68
2023-02-19T01:58:37.239Z,5.22
2023-02-19T02:01:07.259Z,4.35
2023-02-19T02:03:35.451Z,4.63
2023-02-19T02:06:08.024Z,4.63
2023-02-19T02:08:53.428Z,3.97
2023-02-19T02:11:20.598Z,4.50
2023-02-19T02:13:48.111Z,4.40
2023-02-19T02:16:19.153Z,4.53
2023-02-19T02:18:48.646Z,4.57
2023-02-19T02:24:24.320Z,4.07
2023-02-19T02:27:08.727Z,5.50
2023-02-19T02:29:47.331Z,2.90
2023-02-19T02:32:20.620Z,3.85
2023-02-19T02:34:59.539Z,3.83
2023-02-19T02:37:30.323Z,4.53
2023-02-19T02:39:58.435Z,3.85
2023-02-19T02:42:27.863Z,3.00
2023-02-19T02:45:14.397Z,3.33
2023-02-19T02:47:50.664Z,2.78
2023-02-19T02:50:25.297Z,2.78
2023-02-19T02:53:18.404Z,3.13
2023-02-19T02:55:49.081Z,3.00
2023-02-19T02:58:16.896Z,3.28
2023-02-19T03:01:05.678Z,2.63
2023-02-19T03:03:32.621Z,3.20
2023-02-19T03:06:04.665Z,2.85
2023-02-19T03:08:49.364Z,2.87
2023-02-19T03:11:34.343Z,2.15
2023-02-19T03:14:32.038Z,2.75
2023-02-19T03:17:37.090Z,2.63
2023-02-19T03:20:07.810Z,2.78
2023-02-19T03:22:37.867Z,2.67
2023-02-19T03:25:28.574Z,3.20
2023-02-19T03:27:58.597Z,2.95
2023-02-19T03:30:31.187Z,4.20
2023-02-19T03:33:03.326Z,3.42
2023-02-19T03:35:33.301Z,2.93
2023-02-19T03:38:03.380Z,3.17
2023-02-19T03:40:34.488Z,2.40
2023-02-19T03:43:24.074Z,3.35
2023-02-19T03:45:56.987Z,3.63
2023-02-19T03:48:31.220Z,3.23
2023-02-19T03:51:20.499Z,3.97
2023-02-19T03:53:53.618Z,3.47
2023-02-19T03:56:32.106Z,3.65
2023-02-19T03:59:08.956Z,3.22
2023-02-19T04:01:44.380Z,3.00
2023-02-19T04:04:13.518Z,3.17
2023-02-19T04:06:42.699Z,3.45
2023-02-19T04:09:14.502Z,3.00
2023-02-19T04:11:41.707Z,3.30
2023-02-19T04:14:08.095Z,3.20
2023-02-19T04:16:39.218Z,2.83
2023-02-19T04:19:11.496Z,2.97
2023-02-19T04:21:40.797Z,3.30
2023-02-19T04:24:13.248Z,2.95
2023-02-19T04:26:40.419Z,3.33
2023-02-19T04:29:07.020Z,3.58
2023-02-19T04:31:35.788Z,3.92
2023-02-19T04:34:03.844Z,3.47
2023-02-19T04:36:32.095Z,4.43
2023-02-19T04:38:58.932Z,3.23
2023-02-19T04:41:25.459Z,3.20
2023-02-19T04:43:51.908Z,2.70
2023-02-19T04:46:18.416Z,3.42
2023-02-19T04:48:44.870Z,3.22
2023-02-19T04:51:11.794Z,2.80
2023-02-19T04:53:38.512Z,3.85
2023-02-19T04:56:12.988Z,2.63
2023-02-19T04:58:40.611Z,3.15
2023-02-19T05:01:07.871Z,2.67
2023-02-19T05:03:37.307Z,2.90
2023-02-19T05:06:06.138Z,3.38
2023-02-19T05:08:32.779Z,2.63
2023-02-19T05:11:00.669Z,2.83
2023-02-19T05:13:27.428Z,2.60
2023-02-19T05:15:55.766Z,2.37
2023-02-19T05:18:22.277Z,2.95
2023-02-19T05:20:49.635Z,2.60
2023-02-19T05:23:16.069Z,2.40
2023-02-19T05:25:42.515Z,3.00
2023-02-19T05:28:17.873Z,2.40
2023-02-19T05:30:52.158Z,3.10
2023-02-19T05:33:20.838Z,2.95
2023-02-19T05:35:49.861Z,3.13
2023-02-19T05:38:17.583Z,2.53
2023-02-19T05:40:45.518Z,2.70
2023-02-19T05:43:13.483Z,2.03
2023-02-19T05:45:40.503Z,2.63
2023-02-19T05:48:07.885Z,2.70
2023-02-19T05:50:37.286Z,2.83
2023-02-19T05:53:05.729Z,2.90
2023-02-19T05:55:36.415Z,2.70
2023-02-19T05:58:03.415Z,2.38
2023-02-19T06:00:30.529Z,3.40
2023-02-19T06:02:56.991Z,3.33
2023-02-19T06:05:23.668Z,3.47
2023-02-19T06:07:50.567Z,3.13
2023-02-19T06:10:18.061Z,3.40
2023-02-19T06:12:44.805Z,3.63
2023-02-19T06:15:11.325Z,3.88
2023-02-19T06:17:37.785Z,3.70
2023-02-19T06:20:04.472Z,3.63
2023-02-19T06:22:30.919Z,3.65
2023-02-19T06:24:57.392Z,3.80
2023-02-19T06:27:23.859Z,3.97
2023-02-19T06:29:50.432Z,4.20
2023-02-19T06:32:17.083Z,3.47
2023-02-19T06:34:43.612Z,3.45
2023-02-19T06:37:10.130Z,3.28
2023-02-19T06:39:36.714Z,3.63
2023-02-19T06:42:03.249Z,3.30
2023-02-19T06:44:30.177Z,3.90
2023-02-19T06:46:56.869Z,3.75
2023-02-19T06:49:23.613Z,3.50
2023-02-19T06:51:50.062Z,3.20
2023-02-19T06:54:16.496Z,3.73
2023-02-19T06:56:46.074Z,3.97
2023-02-19T06:59:16.951Z,3.97
2023-02-19T07:01:44.708Z,4.38
2023-02-19T07:04:11.619Z,4.30
2023-02-19T07:06:38.531Z,4.13
2023-02-19T07:09:06.400Z,4.30
2023-02-19T07:11:34.385Z,4.63
2023-02-19T07:14:04.691Z,4.43
2023-02-19T07:16:31.454Z,4.47
2023-02-19T07:18:59.280Z,4.10
2023-02-19T07:21:26.405Z,4.50
2023-02-19T07:23:52.950Z,4.97
2023-02-19T07:26:20.313Z,4.43
2023-02-19T07:28:48.623Z,5.30
2023-02-19T07:31:16.551Z,4.63
2023-02-19T07:33:46.846Z,4.45
2023-02-19T07:36:15.250Z,4.55
2023-02-19T07:38:41.697Z,4.18
2023-02-19T07:41:08.148Z,4.63
2023-02-19T07:43:37.061Z,5.50
2023-02-19T07:46:14.085Z,4.25
2023-02-19T07:48:42.675Z,4.50
2023-02-19T07:51:14.010Z,4.68
2023-02-19T07:53:40.549Z,4.32
2023-02-19T07:56:08.630Z,5.33
2023-02-19T07:58:35.193Z,4.72
2023-02-19T08:01:14.795Z,4.65
2023-02-19T08:03:41.913Z,6.35
2023-02-19T08:06:09.080Z,4.88
2023-02-19T08:08:35.583Z,5.50
2023-02-19T08:11:23.004Z,5.35
2023-02-19T08:13:51.042Z,6.18
2023-02-19T08:16:29.597Z,7.03
2023-02-19T08:18:56.441Z,6.50
2023-02-19T08:21:22.962Z,5.77
2023-02-19T08:23:51.201Z,6.53
2023-02-19T08:26:18.417Z,5.30
2023-02-19T08:28:44.946Z,6.43
2023-02-19T08:31:12.509Z,5.95
2023-02-19T08:33:39.112Z,5.33
2023-02-19T08:36:07.677Z,5.60
2023-02-19T08:38:35.902Z,5.20
2023-02-19T08:41:11.796Z,4.90
2023-02-19T08:43:39.293Z,4.82
2023-02-19T08:46:07.186Z,6.10
2023-02-19T08:48:33.861Z,5.32
2023-02-19T08:51:07.075Z,7.22
2023-02-19T08:53:35.461Z,6.32
2023-02-19T08:56:13.668Z,6.53
2023-02-19T08:58:40.496Z,7.50
2023-02-19T09:01:12.586Z,6.57
2023-02-19T09:03:39.478Z,7.28
2023-02-19T09:06:06.228Z,7.43
2023-02-19T09:08:32.857Z,7.00
2023-02-19T09:11:04.590Z,6.90
2023-02-19T09:13:31.129Z,7.65
2023-02-19T09:15:57.725Z,6.97
2023-02-19T09:18:25.657Z,7.03
2023-02-19T09:20:52.136Z,6.75
2023-02-19T09:23:18.617Z,7.73
2023-02-19T09:25:45.085Z,8.18
2023-02-19T09:28:11.809Z,6.75
2023-02-19T09:30:38.310Z,6.68
2023-02-19T09:33:05.977Z,6.65
2023-02-19T09:35:32.500Z,6.23
2023-02-19T09:38:03.102Z,6.50
2023-02-19T09:40:30.323Z,6.55
2023-02-19T09:42:58.447Z,5.30
2023-02-19T09:45:26.885Z,5.40
2023-02-19T09:47:57.129Z,4.60
2023-02-19T09:50:31.886Z,5.05
2023-02-19T09:53:03.229Z,4.90
2023-02-19T09:55:37.957Z,3.70
2023-02-19T09:58:35.610Z,4.07
2023-02-19T10:01:05.125Z,2.87
2023-02-19T10:03:35.417Z,2.70
2023-02-19T10:06:24.602Z,2.53
2023-02-19T10:09:18.652Z,2.20
2023-02-19T10:11:45.181Z,2.20
2023-02-19T10:14:19.553Z,1.07
2023-02-19T10:16:50.066Z,1.00
2023-02-19T10:19:16.629Z,0.80
2023-02-19T10:21:44.356Z,0.80
2023-02-19T10:24:20.883Z,1.33
2023-02-19T10:26:47.902Z,1.00
2023-02-19T10:29:14.288Z,0.68
2023-02-19T10:31:40.850Z,1.00
2023-02-19T10:34:18.215Z,0.73
2023-02-19T10:36:48.551Z,0.93
2023-02-19T10:39:50.516Z,0.70
2023-02-19T10:42:22.295Z,0.75
2023-02-19T10:44:58.528Z,1.42
2023-02-19T10:47:27.102Z,0.80
2023-02-19T10:49:59.865Z,0.82
2023-02-19T10:52:34.382Z,0.90
2023-02-19T10:55:26.734Z,0.90
2023-02-19T10:57:53.127Z,1.17
2023-02-19T11:00:31.060Z,0.80
2023-02-19T11:03:23.837Z,1.13
2023-02-19T11:06:04.314Z,0.80
2023-02-19T11:08:38.234Z,1.13
2023-02-19T11:11:04.962Z,1.20
2023-02-19T11:13:37.921Z,1.20
2023-02-19T11:16:05.373Z,1.38
2023-02-19T11:18:32.970Z,1.20
2023-02-19T11:21:01.873Z,1.00
2023-02-19T11:23:44.841Z,1.23
2023-02-19T11:26:35.274Z,0.93
2023-02-19T11:29:16.530Z,0.73
2023-02-19T11:31:43.043Z,1.07
2023-02-19T11:34:17.371Z,1.00
2023-02-19T11:36:43.795Z,0.80
2023-02-19T11:39:10.151Z,0.82
2023-02-19T11:41:54.760Z,1.00
2023-02-19T11:44:51.034Z,0.70
2023-02-19T11:47:29.569Z,1.17
2023-02-19T11:50:19.234Z,1.38
2023-02-19T11:53:27.843Z,0.85
2023-02-19T11:56:15.751Z,1.10
2023-02-19T11:59:02.105Z,1.00
2023-02-19T12:01:43.682Z,0.80
2023-02-19T12:04:41.883Z,1.10
2023-02-19T12:07:11.320Z,0.63
2023-02-19T12:09:49.892Z,0.60
2023-02-19T12:12:25.491Z,0.67
2023-02-19T12:15:05.787Z,1.02
2023-02-19T12:18:04.425Z,1.10
2023-02-19T12:20:43.760Z,1.17
2023-02-19T12:23:46.192Z,0.82
2023-02-19T12:26:33.005Z,1.03
2023-02-19T12:29:33.061Z,1.40
2023-02-19T12:32:03.718Z,1.10
2023-02-19T12:34:44.988Z,1.08
2023-02-19T12:37:52.776Z,0.80
2023-02-19T12:40:49.178Z,0.90
2023-02-19T12:43:22.385Z,0.60
2023-02-19T12:46:14.648Z,1.15
2023-02-19T12:49:00.132Z,0.55
2023-02-19T12:51:40.140Z,0.68
2023-02-19T12:54:25.008Z,0.50
2023-02-19T12:56:57.988Z,1.00
2023-02-19T12:59:27.298Z,0.57
2023-02-19T13:02:11.509Z,0.65
2023-02-19T13:05:05.709Z,0.80
2023-02-19T13:07:38.100Z,0.70
2023-02-19T13:10:33.910Z,0.60
2023-02-19T13:13:06.970Z,0.90
2023-02-19T13:15:41.681Z,0.82
2023-02-19T13:18:18.711Z,0.90
2023-02-19T13:20:47.846Z,0.87
2023-02-19T13:23:42.259Z,1.17
2023-02-19T13:26:11.853Z,0.90
2023-02-19T13:28:59.626Z,1.25
2023-02-19T13:32:03.309Z,1.17
2023-02-19T13:34:36.049Z,0.60
2023-02-19T13:37:03.259Z,0.70
2023-02-19T13:39:31.302Z,0.70
2023-02-19T13:41:59.349Z,0.90
2023-02-19T13:44:32.176Z,0.80
2023-02-19T13:46:59.590Z,0.80
2023-02-19T13:49:39.335Z,0.60
2023-02-19T13:52:30.554Z,0.63
2023-02-19T13:55:34.654Z,0.60
2023-02-19T13:58:39.681Z,0.70
2023-02-19T14:01:09.842Z,0.40
2023-02-19T14:03:54.300Z,0.77
2023-02-19T14:06:21.350Z,0.60
2023-02-19T14:08:57.703Z,0.60
2023-02-19T14:11:42.462Z,0.80
2023-02-19T14:14:26.403Z,0.60
2023-02-19T14:16:57.984Z,0.70
2023-02-19T14:19:42.792Z,0.68
2023-02-19T14:22:47.206Z,0.90
2023-02-19T14:25:31.802Z,0.60
2023-02-19T14:28:10.468Z,0.83
2023-02-19T14:30:57.791Z,0.70
2023-02-19T14:33:29.279Z,0.40
2023-02-19T14:36:21.606Z,0.40
2023-02-19T14:38:53.481Z,0.50
2023-02-19T14:41:23.063Z,0.60
2023-02-19T14:43:51.734Z,0.52
2023-02-19T14:46:23.981Z,0.55
2023-02-19T14:48:50.882Z,0.40
2023-02-19T14:51:27.662Z,0.30
2023-02-19T14:53:56.408Z,0.50
2023-02-19T14:56:26.426Z,0.20
2023-02-19T14:59:08.254Z,0.20
2023-02-19T15:01:34.729Z,0.30
2023-02-19T15:04:01.261Z,0.30
2023-02-19T15:06:28.745Z,0.30
2023-02-19T15:08:59.193Z,0.30
2023-02-19T15:11:28.710Z,0.20
2023-02-19T15:14:00.841Z,0.30
2023-02-19T15:16:29.120Z,0.30
2023-02-19T15:18:57.853Z,0.40
2023-02-19T15:21:39.995Z,0.95
2023-02-19T15:24:07.171Z,0.73
2023-02-19T15:26:40.441Z,3.40
2023-02-19T15:29:12.308Z,1.70
2023-02-19T15:31:51.010Z,0.50
2023-02-19T15:34:37.760Z,1.02
2023-02-19T15:37:07.722Z,1.50
2023-02-19T15:39:40.044Z,1.33
2023-02-19T15:42:11.136Z,0.82
2023-02-19T15:44:49.396Z,0.70
2023-02-19T15:47:22.717Z,0.45
2023-02-19T15:50:11.493Z,1.27
2023-02-19T15:53:01.159Z,0.60
2023-02-19T15:55:39.070Z,1.95
2023-02-19T15:58:20.596Z,3.70
2023-02-19T16:00:59.264Z,0.88
2023-02-19T16:03:28.153Z,1.33
2023-02-19T16:06:02.432Z,1.73
2023-02-19T16:08:39.746Z,0.90
2023-02-19T16:11:24.644Z,1.03
2023-02-19T16:13:51.968Z,0.60
2023-02-19T16:16:35.321Z,0.50
2023-02-19T16:19:02.110Z,1.40
2023-02-19T16:21:28.982Z,1.10
2023-02-19T16:24:13.374Z,0.80
2023-02-19T16:26:41.055Z,0.80
2023-02-19T16:29:19.692Z,0.80
2023-02-19T16:31:56.391Z,0.60
2023-02-19T16:34:47.025Z,1.23
2023-02-19T16:37:59.103Z,0.73
2023-02-19T16:41:00.715Z,0.40
2023-02-19T16:43:38.153Z,0.82
2023-02-19T16:46:07.013Z,1.13
2023-02-19T16:48:33.842Z,1.00
2023-02-19T16:51:00.401Z,1.27
2023-02-19T16:53:26.988Z,1.23
2023-02-19T16:55:53.500Z,1.13
2023-02-19T16:58:20.462Z,1.33
2023-02-19T17:00:47.403Z,1.10
2023-02-19T17:03:18.229Z,1.37
2023-02-19T17:05:45.230Z,1.05
2023-02-19T17:08:33.769Z,4.60
2023-02-19T17:11:06.453Z,4.70
2023-02-19T17:13:33.022Z,3.22
2023-02-19T17:15:59.692Z,2.37
2023-02-19T17:18:26.259Z,2.05
2023-02-19T17:21:20.620Z,1.60
2023-02-19T17:23:47.226Z,1.60
2023-02-19T17:26:18.965Z,1.75
2023-02-19T17:28:45.541Z,1.40
2023-02-19T17:31:13.633Z,1.63
2023-02-19T17:33:41.017Z,1.58
2023-02-19T17:36:08.203Z,1.55
2023-02-19T17:38:35.100Z,1.05
2023-02-19T17:41:01.523Z,1.50
2023-02-19T17:43:27.925Z,1.17
2023-02-19T17:45:54.447Z,1.30
2023-02-19T17:48:20.920Z,3.58
2023-02-19T17:50:49.250Z,1.77
2023-02-19T17:53:15.790Z,1.00
2023-02-19T17:55:42.248Z,1.25
2023-02-19T17:58:08.715Z,0.90
2023-02-19T18:00:36.579Z,1.38
2023-02-19T18:03:03.922Z,1.38
2023-02-19T18:05:31.382Z,1.13
2023-02-19T18:07:57.877Z,1.73
2023-02-19T18:10:25.239Z,1.70
2023-02-19T18:12:51.767Z,1.00
2023-02-19T18:15:21.727Z,0.90
2023-02-19T18:17:48.264Z,1.30
2023-02-19T18:20:16.767Z,12.85
2023-02-19T18:22:43.261Z,6.25
2023-02-19T18:25:10.985Z,3.10
2023-02-19T18:27:37.816Z,1.35
2023-02-19T18:30:05.657Z,1.13
2023-02-19T18:32:32.146Z,0.80
2023-02-19T18:35:00.164Z,0.70
2023-02-19T18:37:30.033Z,1.00
2023-02-19T18:39:57.763Z,0.98
2023-02-19T18:42:24.325Z,1.23
2023-02-19T18:44:52.699Z,1.33
2023-02-19T18:47:21.538Z,2.65
2023-02-19T18:49:51.866Z,2.95
2023-02-19T18:52:21.168Z,1.98
2023-02-19T18:54:52.465Z,1.67
2023-02-19T18:57:21.442Z,1.90
2023-02-19T18:59:48.754Z,1.20
2023-02-19T19:02:16.844Z,2.05
2023-02-19T19:04:43.440Z,1.45
2023-02-19T19:07:10.260Z,1.30
2023-02-19T19:09:37.154Z,2.45
2023-02-19T19:12:03.925Z,6.60
2023-02-19T19:14:30.378Z,3.88
2023-02-19T19:16:56.892Z,6.32
2023-02-19T19:19:23.593Z,5.63
2023-02-19T19:21:53.453Z,8.32
2023-02-19T19:24:21.453Z,12.02
2023-02-19T19:26:48.920Z,3.75
2023-02-19T19:29:17.202Z,3.63
2023-02-19T19:31:44.586Z,1.93
2023-02-19T19:34:12.854Z,2.92
2023-02-19T19:36:39.303Z,2.65
2023-02-19T19:39:07.890Z,1.50
2023-02-19T19:41:34.350Z,1.52
2023-02-19T19:44:08.722Z,1.47
2023-02-19T19:46:35.250Z,1.48
2023-02-19T19:49:01.805Z,2.63
2023-02-19T19:51:32.815Z,2.03
2023-02-19T19:53:59.669Z,1.63
2023-02-19T19:56:26.130Z,1.37
2023-02-19T19:58:52.517Z,1.50
2023-02-19T20:01:21.270Z,1.55
2023-02-19T20:03:48.026Z,1.60
2023-02-19T20:06:14.541Z,1.63
2023-02-19T20:08:41.261Z,1.43
2023-02-19T20:11:07.649Z,1.60
2023-02-19T20:13:34.529Z,1.83
2023-02-19T20:16:01.019Z,1.80
2023-02-19T20:18:27.537Z,1.40
2023-02-19T20:20:54.021Z,1.40
2023-02-19T20:23:20.480Z,1.58
2023-02-19T20:25:46.927Z,2.13
2023-02-19T20:28:13.391Z,1.60
2023-02-19T20:30:39.902Z,2.20
2023-02-19T20:33:06.379Z,2.97
2023-02-19T20:35:33.718Z,1.70
2023-02-19T20:38:00.255Z,1.70
2023-02-19T20:40:30.401Z,2.15
2023-02-19T20:42:57.387Z,1.50
2023-02-19T20:45:23.894Z,1.87
2023-02-19T20:47:50.293Z,1.88
2023-02-19T20:50:18.736Z,1.77
2023-02-19T20:52:46.065Z,2.03
2023-02-19T20:55:12.966Z,2.95
2023-02-19T20:57:39.388Z,2.53
2023-02-19T21:00:07.107Z,2.13
2023-02-19T21:02:33.910Z,2.42
2023-02-19T21:05:00.889Z,2.78
2023-02-19T21:07:27.371Z,2.78
2023-02-19T21:09:54.524Z,3.47
2023-02-19T21:12:22.491Z,3.60
2023-02-19T21:14:49.364Z,3.72
2023-02-19T21:17:15.955Z,4.07
2023-02-19T21:19:42.522Z,4.53
2023-02-19T21:22:09.007Z,4.43
2023-02-19T21:24:35.545Z,3.95
2023-02-19T21:27:02.051Z,3.55
2023-02-19T21:29:28.486Z,3.50
2023-02-19T21:31:56.884Z,3.20
2023-02-19T21:34:26.864Z,3.17
2023-02-19T21:36:54.378Z,3.15
2023-02-19T21:39:22.653Z,3.10
2023-02-19T21:41:49.821Z,3.10
2023-02-19T21:44:16.816Z,3.85
2023-02-19T21:46:43.201Z,2.23
2023-02-19T21:49:10.434Z,2.83
2023-02-19T21:51:39.942Z,2.30
2023-02-19T21:54:07.930Z,2.53
2023-02-19T21:56:36.483Z,2.67
2023-02-19T21:59:03.710Z,3.20
2023-02-19T22:01:33.320Z,2.88
2023-02-19T22:04:00.633Z,3.00
2023-02-19T22:06:29.650Z,2.63
2023-02-19T22:08:56.490Z,2.80
2023-02-19T22:11:23.252Z,2.37
2023-02-19T22:13:49.989Z,2.85
2023-02-19T22:16:17.660Z,2.47
2023-02-19T22:18:52.453Z,3.25
2023-02-19T22:21:20.310Z,2.83
2023-02-19T22:23:47.697Z,2.83
2023-02-19T22:26:37.244Z,2.60
2023-02-19T22:29:07.136Z,2.67
2023-02-19T22:31:34.752Z,3.08
2023-02-19T22:34:01.375Z,3.25
2023-02-19T22:36:31.009Z,3.43
2023-02-19T22:38:57.547Z,2.72
2023-02-19T22:41:23.994Z,3.05
2023-02-19T22:43:53.597Z,3.35
2023-02-19T22:46:22.932Z,3.40
2023-02-19T22:48:50.519Z,3.53
2023-02-19T22:51:19.612Z,2.72
2023-02-19T22:53:47.602Z,2.92
2023-02-19T22:56:15.489Z,3.28
2023-02-19T22:58:42.421Z,3.28
2023-02-19T23:01:10.484Z,3.33
2023-02-19T23:03:57.172Z,4.15
2023-02-19T23:06:34.645Z,3.30
2023-02-19T23:09:09.821Z,3.78
2023-02-19T23:11:39.439Z,4.28
2023-02-19T23:14:07.424Z,4.00
2023-02-19T23:16:35.947Z,3.38
2023-02-19T23:19:05.019Z,3.80
2023-02-19T23:21:32.098Z,4.35
2023-02-19T23:23:59.286Z,3.70
2023-02-19T23:26:25.817Z,3.93
2023-02-19T23:28:52.348Z,4.07
2023-02-19T23:31:19.022Z,4.32
2023-02-19T23:33:45.652Z,4.20
2023-02-19T23:36:13.695Z,4.32
2023-02-19T23:38:40.392Z,4.47
2023-02-19T23:41:11.627Z,4.50
2023-02-19T23:43:38.792Z,4.68
2023-02-19T23:46:05.736Z,4.22
2023-02-19T23:48:32.613Z,4.10
2023-02-19T23:50:59.327Z,4.87
2023-02-19T23:53:25.879Z,4.70
2023-02-19T23:55:52.318Z,5.57
2023-02-19T23:58:19.145Z,5.05
